sensor_id;sensor_type;location;lat;lon;timestamp;P1;durP1;ratioP1;P2;durP2;ratioP2
8592;SDS011;4334;49.982;8.398;2023-04-06T00:00:17;13.27;;;7.90;;
8592;SDS011;4334;49.982;8.398;2023-04-06T00:02:44;14.33;;;8.10;;
8592;SDS011;4334;49.982;8.398;2023-04-06T00:05:11;15.17;;;8.37;;
8592;SDS011;4334;49.982;8.398;2023-04-06T00:07:38;12.87;;;8.20;;
8592;SDS011;4334;49.982;8.398;2023-04-06T00:10:05;11.83;;;8.43;;
8592;SDS011;4334;49.982;8.398;2023-04-06T00:12:33;12.97;;;8.03;;
8592;SDS011;4334;49.982;8.398;2023-04-06T00:15:00;13.60;;;9.30;;
8592;SDS011;4334;49.982;8.398;2023-04-06T00:17:31;15.53;;;8.80;;
8592;SDS011;4334;49.982;8.398;2023-04-06T00:19:57;13.50;;;8.30;;
8592;SDS011;4334;49.982;8.398;2023-04-06T00:22:24;14.73;;;8.63;;
8592;SDS011;4334;49.982;8.398;2023-04-06T00:24:51;14.20;;;8.43;;
8592;SDS011;4334;49.982;8.398;2023-04-06T00:27:18;17.67;;;9.50;;
8592;SDS011;4334;49.982;8.398;2023-04-06T00:29:45;15.90;;;9.30;;
8592;SDS011;4334;49.982;8.398;2023-04-06T00:32:12;15.47;;;8.67;;
8592;SDS011;4334;49.982;8.398;2023-04-06T00:34:40;13.27;;;8.47;;
8592;SDS011;4334;49.982;8.398;2023-04-06T00:37:07;14.37;;;9.07;;
8592;SDS011;4334;49.982;8.398;2023-04-06T00:39:33;15.33;;;8.27;;
8592;SDS011;4334;49.982;8.398;2023-04-06T00:42:00;14.87;;;8.60;;
8592;SDS011;4334;49.982;8.398;2023-04-06T00:44:37;14.70;;;8.43;;
8592;SDS011;4334;49.982;8.398;2023-04-06T00:47:04;12.80;;;8.17;;
8592;SDS011;4334;49.982;8.398;2023-04-06T00:49:31;13.53;;;8.30;;
8592;SDS011;4334;49.982;8.398;2023-04-06T00:52:00;14.40;;;8.30;;
8592;SDS011;4334;49.982;8.398;2023-04-06T00:54:27;14.77;;;8.53;;
8592;SDS011;4334;49.982;8.398;2023-04-06T00:56:54;15.70;;;8.83;;
8592;SDS011;4334;49.982;8.398;2023-04-06T00:59:22;14.50;;;8.77;;
8592;SDS011;4334;49.982;8.398;2023-04-06T01:01:49;14.53;;;9.00;;
8592;SDS011;4334;49.982;8.398;2023-04-06T01:04:16;14.73;;;8.97;;
8592;SDS011;4334;49.982;8.398;2023-04-06T01:06:42;14.67;;;8.43;;
8592;SDS011;4334;49.982;8.398;2023-04-06T01:09:11;16.00;;;9.30;;
8592;SDS011;4334;49.982;8.398;2023-04-06T01:11:38;13.57;;;8.07;;
8592;SDS011;4334;49.982;8.398;2023-04-06T01:14:05;13.87;;;8.33;;
8592;SDS011;4334;49.982;8.398;2023-04-06T01:16:32;15.87;;;9.10;;
8592;SDS011;4334;49.982;8.398;2023-04-06T01:18:59;11.80;;;8.00;;
8592;SDS011;4334;49.982;8.398;2023-04-06T01:21:26;13.80;;;8.43;;
8592;SDS011;4334;49.982;8.398;2023-04-06T01:23:54;14.90;;;8.63;;
8592;SDS011;4334;49.982;8.398;2023-04-06T01:26:21;14.47;;;8.77;;
8592;SDS011;4334;49.982;8.398;2023-04-06T01:28:48;14.40;;;8.77;;
8592;SDS011;4334;49.982;8.398;2023-04-06T01:31:15;13.47;;;8.57;;
8592;SDS011;4334;49.982;8.398;2023-04-06T01:33:42;13.03;;;8.40;;
8592;SDS011;4334;49.982;8.398;2023-04-06T01:36:09;15.50;;;9.13;;
8592;SDS011;4334;49.982;8.398;2023-04-06T01:38:36;15.00;;;8.87;;
8592;SDS011;4334;49.982;8.398;2023-04-06T01:41:04;13.33;;;9.03;;
8592;SDS011;4334;49.982;8.398;2023-04-06T01:43:31;17.20;;;9.53;;
8592;SDS011;4334;49.982;8.398;2023-04-06T01:45:58;16.50;;;10.70;;
8592;SDS011;4334;49.982;8.398;2023-04-06T01:48:25;21.23;;;10.70;;
8592;SDS011;4334;49.982;8.398;2023-04-06T01:50:52;15.23;;;10.03;;
8592;SDS011;4334;49.982;8.398;2023-04-06T01:53:19;21.43;;;11.10;;
8592;SDS011;4334;49.982;8.398;2023-04-06T01:55:46;19.27;;;11.17;;
8592;SDS011;4334;49.982;8.398;2023-04-06T01:58:14;17.03;;;9.77;;
8592;SDS011;4334;49.982;8.398;2023-04-06T02:00:41;16.33;;;9.83;;
8592;SDS011;4334;49.982;8.398;2023-04-06T02:03:08;15.17;;;9.70;;
8592;SDS011;4334;49.982;8.398;2023-04-06T02:05:34;16.77;;;9.17;;
8592;SDS011;4334;49.982;8.398;2023-04-06T02:08:03;14.23;;;8.83;;
8592;SDS011;4334;49.982;8.398;2023-04-06T02:10:30;15.67;;;9.63;;
8592;SDS011;4334;49.982;8.398;2023-04-06T02:12:57;16.40;;;9.27;;
8592;SDS011;4334;49.982;8.398;2023-04-06T02:15:25;18.67;;;9.13;;
8592;SDS011;4334;49.982;8.398;2023-04-06T02:17:52;16.50;;;9.43;;
8592;SDS011;4334;49.982;8.398;2023-04-06T02:20:20;14.80;;;9.20;;
8592;SDS011;4334;49.982;8.398;2023-04-06T02:22:47;17.37;;;9.00;;
8592;SDS011;4334;49.982;8.398;2023-04-06T02:25:14;16.63;;;9.70;;
8592;SDS011;4334;49.982;8.398;2023-04-06T02:27:41;22.47;;;8.73;;
8592;SDS011;4334;49.982;8.398;2023-04-06T02:30:08;13.40;;;8.40;;
8592;SDS011;4334;49.982;8.398;2023-04-06T02:32:37;15.47;;;9.07;;
8592;SDS011;4334;49.982;8.398;2023-04-06T02:35:04;14.77;;;9.23;;
8592;SDS011;4334;49.982;8.398;2023-04-06T02:37:31;16.17;;;8.93;;
8592;SDS011;4334;49.982;8.398;2023-04-06T02:39:58;17.27;;;8.80;;
8592;SDS011;4334;49.982;8.398;2023-04-06T02:42:25;14.90;;;8.60;;
8592;SDS011;4334;49.982;8.398;2023-04-06T02:44:52;17.40;;;9.00;;
8592;SDS011;4334;49.982;8.398;2023-04-06T02:47:19;17.53;;;8.40;;
8592;SDS011;4334;49.982;8.398;2023-04-06T02:49:47;14.27;;;8.50;;
8592;SDS011;4334;49.982;8.398;2023-04-06T02:52:14;15.00;;;8.27;;
8592;SDS011;4334;49.982;8.398;2023-04-06T02:54:42;16.90;;;8.10;;
8592;SDS011;4334;49.982;8.398;2023-04-06T02:57:09;10.43;;;7.47;;
8592;SDS011;4334;49.982;8.398;2023-04-06T02:59:36;14.03;;;7.97;;
8592;SDS011;4334;49.982;8.398;2023-04-06T03:02:03;11.40;;;7.60;;
8592;SDS011;4334;49.982;8.398;2023-04-06T03:04:30;14.37;;;7.13;;
8592;SDS011;4334;49.982;8.398;2023-04-06T03:06:58;13.13;;;7.47;;
8592;SDS011;4334;49.982;8.398;2023-04-06T03:09:25;15.40;;;8.40;;
8592;SDS011;4334;49.982;8.398;2023-04-06T03:11:52;11.73;;;7.60;;
8592;SDS011;4334;49.982;8.398;2023-04-06T03:14:20;13.77;;;7.73;;
8592;SDS011;4334;49.982;8.398;2023-04-06T03:16:47;15.33;;;8.10;;
8592;SDS011;4334;49.982;8.398;2023-04-06T03:39:41;12.73;;;7.53;;
8592;SDS011;4334;49.982;8.398;2023-04-06T03:42:08;12.90;;;7.87;;
8592;SDS011;4334;49.982;8.398;2023-04-06T03:44:34;15.00;;;7.50;;
8592;SDS011;4334;49.982;8.398;2023-04-06T03:47:01;13.23;;;7.43;;
8592;SDS011;4334;49.982;8.398;2023-04-06T03:49:28;15.90;;;8.37;;
8592;SDS011;4334;49.982;8.398;2023-04-06T03:51:55;17.67;;;9.10;;
8592;SDS011;4334;49.982;8.398;2023-04-06T03:54:23;15.53;;;8.97;;
8592;SDS011;4334;49.982;8.398;2023-04-06T03:56:51;15.43;;;8.43;;
8592;SDS011;4334;49.982;8.398;2023-04-06T03:59:18;15.73;;;8.40;;
8592;SDS011;4334;49.982;8.398;2023-04-06T04:05:07;15.50;;;8.93;;
8592;SDS011;4334;49.982;8.398;2023-04-06T04:24:24;24.87;;;10.33;;
8592;SDS011;4334;49.982;8.398;2023-04-06T04:30:23;25.10;;;10.83;;
8592;SDS011;4334;49.982;8.398;2023-04-06T04:32:52;26.80;;;12.37;;
8592;SDS011;4334;49.982;8.398;2023-04-06T04:35:19;25.40;;;11.73;;
8592;SDS011;4334;49.982;8.398;2023-04-06T04:37:46;24.27;;;11.80;;
8592;SDS011;4334;49.982;8.398;2023-04-06T04:40:19;24.87;;;11.07;;
8592;SDS011;4334;49.982;8.398;2023-04-06T04:42:46;20.50;;;9.87;;
8592;SDS011;4334;49.982;8.398;2023-04-06T04:45:13;22.60;;;10.03;;
8592;SDS011;4334;49.982;8.398;2023-04-06T04:47:41;19.17;;;9.77;;
8592;SDS011;4334;49.982;8.398;2023-04-06T04:50:08;20.50;;;9.87;;
8592;SDS011;4334;49.982;8.398;2023-04-06T04:52:37;15.80;;;8.77;;
8592;SDS011;4334;49.982;8.398;2023-04-06T04:55:07;15.10;;;9.17;;
8592;SDS011;4334;49.982;8.398;2023-04-06T04:57:36;17.93;;;9.40;;
8592;SDS011;4334;49.982;8.398;2023-04-06T05:00:04;17.27;;;9.73;;
8592;SDS011;4334;49.982;8.398;2023-04-06T05:02:35;17.63;;;9.37;;
8592;SDS011;4334;49.982;8.398;2023-04-06T05:05:03;16.83;;;10.10;;
8592;SDS011;4334;49.982;8.398;2023-04-06T05:07:37;18.67;;;9.27;;
8592;SDS011;4334;49.982;8.398;2023-04-06T05:10:08;13.83;;;8.83;;
8592;SDS011;4334;49.982;8.398;2023-04-06T05:12:37;15.13;;;9.37;;
8592;SDS011;4334;49.982;8.398;2023-04-06T05:15:06;19.43;;;9.43;;
8592;SDS011;4334;49.982;8.398;2023-04-06T05:17:34;17.97;;;9.77;;
8592;SDS011;4334;49.982;8.398;2023-04-06T05:20:03;14.33;;;8.97;;
8592;SDS011;4334;49.982;8.398;2023-04-06T05:22:32;14.40;;;8.90;;
8592;SDS011;4334;49.982;8.398;2023-04-06T05:25:01;18.07;;;10.27;;
8592;SDS011;4334;49.982;8.398;2023-04-06T05:27:31;12.17;;;8.50;;
8592;SDS011;4334;49.982;8.398;2023-04-06T05:29:59;14.43;;;8.73;;
8592;SDS011;4334;49.982;8.398;2023-04-06T05:32:27;14.67;;;8.60;;
8592;SDS011;4334;49.982;8.398;2023-04-06T05:34:54;12.73;;;8.30;;
8592;SDS011;4334;49.982;8.398;2023-04-06T05:37:21;15.30;;;9.73;;
8592;SDS011;4334;49.982;8.398;2023-04-06T05:39:54;14.00;;;9.07;;
8592;SDS011;4334;49.982;8.398;2023-04-06T05:42:25;12.93;;;8.03;;
8592;SDS011;4334;49.982;8.398;2023-04-06T05:44:53;18.20;;;8.87;;
8592;SDS011;4334;49.982;8.398;2023-04-06T05:47:22;16.67;;;10.03;;
8592;SDS011;4334;49.982;8.398;2023-04-06T05:49:50;15.47;;;9.20;;
8592;SDS011;4334;49.982;8.398;2023-04-06T05:52:17;12.80;;;8.80;;
8592;SDS011;4334;49.982;8.398;2023-04-06T05:54:44;15.20;;;8.43;;
8592;SDS011;4334;49.982;8.398;2023-04-06T05:57:11;11.13;;;7.53;;
8592;SDS011;4334;49.982;8.398;2023-04-06T05:59:38;11.00;;;7.90;;
8592;SDS011;4334;49.982;8.398;2023-04-06T06:02:06;13.30;;;7.60;;
8592;SDS011;4334;49.982;8.398;2023-04-06T06:04:35;12.53;;;7.57;;
8592;SDS011;4334;49.982;8.398;2023-04-06T06:07:02;11.10;;;7.27;;
8592;SDS011;4334;49.982;8.398;2023-04-06T06:09:33;9.73;;;7.27;;
8592;SDS011;4334;49.982;8.398;2023-04-06T06:12:00;12.40;;;7.47;;
8592;SDS011;4334;49.982;8.398;2023-04-06T06:14:27;10.23;;;6.83;;
8592;SDS011;4334;49.982;8.398;2023-04-06T06:16:54;12.50;;;7.10;;
8592;SDS011;4334;49.982;8.398;2023-04-06T06:19:24;11.90;;;6.83;;
8592;SDS011;4334;49.982;8.398;2023-04-06T06:21:52;9.63;;;7.13;;
8592;SDS011;4334;49.982;8.398;2023-04-06T06:27:08;13.83;;;7.10;;
8592;SDS011;4334;49.982;8.398;2023-04-06T06:29:35;9.73;;;7.23;;
8592;SDS011;4334;49.982;8.398;2023-04-06T06:32:02;12.07;;;7.00;;
8592;SDS011;4334;49.982;8.398;2023-04-06T06:34:30;10.47;;;6.83;;
8592;SDS011;4334;49.982;8.398;2023-04-06T06:36:58;8.27;;;6.67;;
8592;SDS011;4334;49.982;8.398;2023-04-06T06:39:25;10.13;;;7.17;;
8592;SDS011;4334;49.982;8.398;2023-04-06T06:41:53;12.00;;;7.33;;
8592;SDS011;4334;49.982;8.398;2023-04-06T06:44:20;10.73;;;7.00;;
8592;SDS011;4334;49.982;8.398;2023-04-06T06:46:47;11.80;;;7.50;;
8592;SDS011;4334;49.982;8.398;2023-04-06T06:49:15;10.73;;;7.50;;
8592;SDS011;4334;49.982;8.398;2023-04-06T06:51:42;12.80;;;6.83;;
8592;SDS011;4334;49.982;8.398;2023-04-06T06:54:11;15.00;;;7.27;;
8592;SDS011;4334;49.982;8.398;2023-04-06T06:56:38;10.13;;;6.87;;
8592;SDS011;4334;49.982;8.398;2023-04-06T06:59:05;10.50;;;7.23;;
8592;SDS011;4334;49.982;8.398;2023-04-06T07:01:35;12.97;;;7.40;;
8592;SDS011;4334;49.982;8.398;2023-04-06T07:04:03;14.97;;;7.30;;
8592;SDS011;4334;49.982;8.398;2023-04-06T07:06:31;11.40;;;7.50;;
8592;SDS011;4334;49.982;8.398;2023-04-06T07:09:02;9.57;;;7.23;;
8592;SDS011;4334;49.982;8.398;2023-04-06T07:11:34;10.07;;;7.50;;
8592;SDS011;4334;49.982;8.398;2023-04-06T07:14:03;11.93;;;8.00;;
8592;SDS011;4334;49.982;8.398;2023-04-06T07:16:33;13.37;;;7.63;;
8592;SDS011;4334;49.982;8.398;2023-04-06T07:19:03;10.33;;;7.67;;
8592;SDS011;4334;49.982;8.398;2023-04-06T07:21:31;11.93;;;7.80;;
8592;SDS011;4334;49.982;8.398;2023-04-06T07:23:58;10.43;;;7.77;;
8592;SDS011;4334;49.982;8.398;2023-04-06T07:26:27;10.03;;;7.70;;
8592;SDS011;4334;49.982;8.398;2023-04-06T07:28:56;9.07;;;7.53;;
8592;SDS011;4334;49.982;8.398;2023-04-06T07:31:31;9.77;;;7.63;;
8592;SDS011;4334;49.982;8.398;2023-04-06T07:33:58;9.37;;;6.70;;
8592;SDS011;4334;49.982;8.398;2023-04-06T07:36:26;10.50;;;7.03;;
8592;SDS011;4334;49.982;8.398;2023-04-06T07:38:57;11.00;;;7.50;;
8592;SDS011;4334;49.982;8.398;2023-04-06T07:41:25;10.90;;;7.33;;
8592;SDS011;4334;49.982;8.398;2023-04-06T07:43:52;11.23;;;7.33;;
8592;SDS011;4334;49.982;8.398;2023-04-06T07:46:22;10.87;;;7.57;;
8592;SDS011;4334;49.982;8.398;2023-04-06T07:48:53;14.37;;;7.87;;
8592;SDS011;4334;49.982;8.398;2023-04-06T07:51:26;13.07;;;7.30;;
8592;SDS011;4334;49.982;8.398;2023-04-06T07:54:01;12.67;;;7.80;;
8592;SDS011;4334;49.982;8.398;2023-04-06T07:59:50;9.20;;;7.43;;
8592;SDS011;4334;49.982;8.398;2023-04-06T08:02:30;12.87;;;7.83;;
8592;SDS011;4334;49.982;8.398;2023-04-06T08:05:13;9.60;;;7.37;;
8592;SDS011;4334;49.982;8.398;2023-04-06T08:07:47;10.20;;;7.77;;
8592;SDS011;4334;49.982;8.398;2023-04-06T08:10:15;12.27;;;7.50;;
8592;SDS011;4334;49.982;8.398;2023-04-06T08:12:49;9.10;;;7.93;;
8592;SDS011;4334;49.982;8.398;2023-04-06T08:15:19;9.67;;;7.60;;
8592;SDS011;4334;49.982;8.398;2023-04-06T08:17:54;8.80;;;7.70;;
8592;SDS011;4334;49.982;8.398;2023-04-06T08:20:22;14.83;;;8.50;;
8592;SDS011;4334;49.982;8.398;2023-04-06T08:22:50;10.20;;;7.40;;
8592;SDS011;4334;49.982;8.398;2023-04-06T08:25:18;12.73;;;7.93;;
8592;SDS011;4334;49.982;8.398;2023-04-06T08:27:47;9.40;;;7.93;;
8592;SDS011;4334;49.982;8.398;2023-04-06T08:30:18;10.17;;;8.50;;
8592;SDS011;4334;49.982;8.398;2023-04-06T08:32:49;10.10;;;8.30;;
8592;SDS011;4334;49.982;8.398;2023-04-06T08:35:21;12.77;;;8.20;;
8592;SDS011;4334;49.982;8.398;2023-04-06T08:37:49;11.10;;;8.17;;
8592;SDS011;4334;49.982;8.398;2023-04-06T08:40:22;10.17;;;8.50;;
8592;SDS011;4334;49.982;8.398;2023-04-06T08:42:56;9.90;;;7.90;;
8592;SDS011;4334;49.982;8.398;2023-04-06T08:45:27;9.70;;;8.27;;
8592;SDS011;4334;49.982;8.398;2023-04-06T08:48:04;12.30;;;8.00;;
8592;SDS011;4334;49.982;8.398;2023-04-06T08:50:37;11.77;;;8.77;;
8592;SDS011;4334;49.982;8.398;2023-04-06T08:53:06;11.13;;;8.70;;
8592;SDS011;4334;49.982;8.398;2023-04-06T08:55:34;10.03;;;8.67;;
8592;SDS011;4334;49.982;8.398;2023-04-06T08:58:06;12.47;;;8.60;;
8592;SDS011;4334;49.982;8.398;2023-04-06T09:00:38;10.07;;;8.87;;
8592;SDS011;4334;49.982;8.398;2023-04-06T09:03:14;10.73;;;8.70;;
8592;SDS011;4334;49.982;8.398;2023-04-06T09:05:45;11.57;;;8.73;;
8592;SDS011;4334;49.982;8.398;2023-04-06T09:08:19;13.03;;;9.07;;
8592;SDS011;4334;49.982;8.398;2023-04-06T09:10:49;10.23;;;8.90;;
8592;SDS011;4334;49.982;8.398;2023-04-06T09:13:20;11.53;;;8.97;;
8592;SDS011;4334;49.982;8.398;2023-04-06T09:15:58;11.30;;;8.63;;
8592;SDS011;4334;49.982;8.398;2023-04-06T09:18:34;12.03;;;9.50;;
8592;SDS011;4334;49.982;8.398;2023-04-06T09:21:11;12.83;;;9.70;;
8592;SDS011;4334;49.982;8.398;2023-04-06T09:23:39;12.83;;;8.87;;
8592;SDS011;4334;49.982;8.398;2023-04-06T09:26:07;11.33;;;8.70;;
8592;SDS011;4334;49.982;8.398;2023-04-06T09:28:43;11.77;;;9.73;;
8592;SDS011;4334;49.982;8.398;2023-04-06T09:31:15;14.03;;;9.43;;
8592;SDS011;4334;49.982;8.398;2023-04-06T09:33:51;12.37;;;9.33;;
8592;SDS011;4334;49.982;8.398;2023-04-06T09:36:28;13.93;;;9.17;;
8592;SDS011;4334;49.982;8.398;2023-04-06T09:38:58;11.70;;;8.63;;
8592;SDS011;4334;49.982;8.398;2023-04-06T09:41:35;11.03;;;9.00;;
8592;SDS011;4334;49.982;8.398;2023-04-06T09:44:05;12.07;;;8.87;;
8592;SDS011;4334;49.982;8.398;2023-04-06T09:46:35;12.30;;;8.67;;
8592;SDS011;4334;49.982;8.398;2023-04-06T09:49:09;16.00;;;9.03;;
8592;SDS011;4334;49.982;8.398;2023-04-06T09:55:14;10.77;;;8.33;;
8592;SDS011;4334;49.982;8.398;2023-04-06T09:57:52;14.23;;;8.70;;
8592;SDS011;4334;49.982;8.398;2023-04-06T10:00:34;12.73;;;9.30;;
8592;SDS011;4334;49.982;8.398;2023-04-06T10:03:32;15.00;;;8.93;;
8592;SDS011;4334;49.982;8.398;2023-04-06T10:06:10;15.37;;;9.50;;
8592;SDS011;4334;49.982;8.398;2023-04-06T10:08:40;17.07;;;9.20;;
8592;SDS011;4334;49.982;8.398;2023-04-06T10:11:11;12.00;;;8.90;;
8592;SDS011;4334;49.982;8.398;2023-04-06T10:13:40;12.20;;;8.27;;
8592;SDS011;4334;49.982;8.398;2023-04-06T10:16:09;13.37;;;8.40;;
8592;SDS011;4334;49.982;8.398;2023-04-06T10:18:39;12.13;;;9.10;;
8592;SDS011;4334;49.982;8.398;2023-04-06T10:21:16;14.93;;;9.30;;
8592;SDS011;4334;49.982;8.398;2023-04-06T10:23:48;12.30;;;8.63;;
8592;SDS011;4334;49.982;8.398;2023-04-06T10:26:21;14.93;;;9.33;;
8592;SDS011;4334;49.982;8.398;2023-04-06T10:28:49;10.47;;;8.47;;
8592;SDS011;4334;49.982;8.398;2023-04-06T10:31:23;11.17;;;8.43;;
8592;SDS011;4334;49.982;8.398;2023-04-06T10:33:56;10.97;;;8.30;;
8592;SDS011;4334;49.982;8.398;2023-04-06T10:36:25;11.40;;;8.10;;
8592;SDS011;4334;49.982;8.398;2023-04-06T10:38:57;13.33;;;8.67;;
8592;SDS011;4334;49.982;8.398;2023-04-06T10:41:33;12.83;;;9.27;;
8592;SDS011;4334;49.982;8.398;2023-04-06T10:44:01;13.43;;;9.30;;
8592;SDS011;4334;49.982;8.398;2023-04-06T10:46:28;14.33;;;9.87;;
8592;SDS011;4334;49.982;8.398;2023-04-06T10:48:56;13.73;;;9.50;;
8592;SDS011;4334;49.982;8.398;2023-04-06T10:51:26;15.17;;;9.40;;
8592;SDS011;4334;49.982;8.398;2023-04-06T10:53:59;14.20;;;9.23;;
8592;SDS011;4334;49.982;8.398;2023-04-06T10:56:31;11.50;;;8.70;;
8592;SDS011;4334;49.982;8.398;2023-04-06T10:59:07;12.23;;;9.03;;
8592;SDS011;4334;49.982;8.398;2023-04-06T11:01:51;11.93;;;8.73;;
8592;SDS011;4334;49.982;8.398;2023-04-06T11:04:21;13.80;;;8.90;;
8592;SDS011;4334;49.982;8.398;2023-04-06T11:06:49;32.60;;;10.63;;
8592;SDS011;4334;49.982;8.398;2023-04-06T11:09:24;15.45;;;8.70;;
8592;SDS011;4334;49.982;8.398;2023-04-06T11:11:54;15.90;;;9.00;;
8592;SDS011;4334;49.982;8.398;2023-04-06T11:14:22;11.30;;;8.30;;
8592;SDS011;4334;49.982;8.398;2023-04-06T11:16:50;12.57;;;8.18;;
8592;SDS011;4334;49.982;8.398;2023-04-06T11:19:20;11.82;;;8.45;;
8592;SDS011;4334;49.982;8.398;2023-04-06T11:21:48;16.10;;;9.02;;
8592;SDS011;4334;49.982;8.398;2023-04-06T11:24:16;12.70;;;8.80;;
8592;SDS011;4334;49.982;8.398;2023-04-06T11:26:48;10.93;;;8.63;;
8592;SDS011;4334;49.982;8.398;2023-04-06T11:29:19;12.98;;;9.20;;
8592;SDS011;4334;49.982;8.398;2023-04-06T11:31:47;11.40;;;9.00;;
8592;SDS011;4334;49.982;8.398;2023-04-06T11:34:53;16.70;;;9.10;;
8592;SDS011;4334;49.982;8.398;2023-04-06T11:37:25;16.63;;;8.55;;
8592;SDS011;4334;49.982;8.398;2023-04-06T11:40:16;12.38;;;8.32;;
8592;SDS011;4334;49.982;8.398;2023-04-06T11:42:52;13.52;;;9.35;;
8592;SDS011;4334;49.982;8.398;2023-04-06T11:45:21;10.80;;;8.43;;
8592;SDS011;4334;49.982;8.398;2023-04-06T11:47:54;12.65;;;9.07;;
8592;SDS011;4334;49.982;8.398;2023-04-06T11:50:23;13.77;;;9.48;;
8592;SDS011;4334;49.982;8.398;2023-04-06T11:52:57;11.82;;;8.60;;
8592;SDS011;4334;49.982;8.398;2023-04-06T11:55:25;11.75;;;9.00;;
8592;SDS011;4334;49.982;8.398;2023-04-06T11:57:53;13.63;;;8.93;;
8592;SDS011;4334;49.982;8.398;2023-04-06T12:00:22;12.55;;;8.73;;
8592;SDS011;4334;49.982;8.398;2023-04-06T12:02:51;12.20;;;9.37;;
8592;SDS011;4334;49.982;8.398;2023-04-06T12:05:19;12.50;;;9.07;;
8592;SDS011;4334;49.982;8.398;2023-04-06T12:07:46;13.43;;;9.23;;
8592;SDS011;4334;49.982;8.398;2023-04-06T12:10:13;13.63;;;8.50;;
8592;SDS011;4334;49.982;8.398;2023-04-06T12:12:41;12.97;;;9.27;;
8592;SDS011;4334;49.982;8.398;2023-04-06T12:15:09;12.60;;;9.33;;
8592;SDS011;4334;49.982;8.398;2023-04-06T12:17:41;14.43;;;9.73;;
8592;SDS011;4334;49.982;8.398;2023-04-06T12:20:11;15.77;;;9.53;;
8592;SDS011;4334;49.982;8.398;2023-04-06T12:22:38;15.17;;;10.13;;
8592;SDS011;4334;49.982;8.398;2023-04-06T12:25:09;14.43;;;9.27;;
8592;SDS011;4334;49.982;8.398;2023-04-06T12:27:39;12.37;;;8.83;;
8592;SDS011;4334;49.982;8.398;2023-04-06T12:30:09;11.70;;;8.68;;
8592;SDS011;4334;49.982;8.398;2023-04-06T12:32:38;13.03;;;8.77;;
8592;SDS011;4334;49.982;8.398;2023-04-06T12:35:08;12.50;;;8.77;;
8592;SDS011;4334;49.982;8.398;2023-04-06T12:37:41;12.32;;;9.27;;
8592;SDS011;4334;49.982;8.398;2023-04-06T12:40:08;11.77;;;8.48;;
8592;SDS011;4334;49.982;8.398;2023-04-06T12:42:40;9.40;;;7.80;;
8592;SDS011;4334;49.982;8.398;2023-04-06T12:45:11;10.68;;;8.18;;
8592;SDS011;4334;49.982;8.398;2023-04-06T12:47:39;10.90;;;8.60;;
8592;SDS011;4334;49.982;8.398;2023-04-06T12:50:08;13.95;;;8.48;;
8592;SDS011;4334;49.982;8.398;2023-04-06T12:52:36;11.35;;;9.13;;
8592;SDS011;4334;49.982;8.398;2023-04-06T12:55:04;12.05;;;7.95;;
8592;SDS011;4334;49.982;8.398;2023-04-06T12:57:34;13.30;;;8.13;;
8592;SDS011;4334;49.982;8.398;2023-04-06T13:00:05;11.57;;;8.82;;
8592;SDS011;4334;49.982;8.398;2023-04-06T13:02:36;12.30;;;8.02;;
8592;SDS011;4334;49.982;8.398;2023-04-06T13:05:04;11.35;;;8.23;;
8592;SDS011;4334;49.982;8.398;2023-04-06T13:07:35;12.05;;;8.30;;
8592;SDS011;4334;49.982;8.398;2023-04-06T13:10:06;10.60;;;7.55;;
8592;SDS011;4334;49.982;8.398;2023-04-06T13:12:37;11.70;;;7.18;;
8592;SDS011;4334;49.982;8.398;2023-04-06T13:15:09;10.68;;;7.05;;
8592;SDS011;4334;49.982;8.398;2023-04-06T13:17:37;10.70;;;7.00;;
8592;SDS011;4334;49.982;8.398;2023-04-06T13:20:05;10.73;;;6.90;;
8592;SDS011;4334;49.982;8.398;2023-04-06T13:22:33;9.20;;;6.70;;
8592;SDS011;4334;49.982;8.398;2023-04-06T13:25:03;9.75;;;6.53;;
8592;SDS011;4334;49.982;8.398;2023-04-06T13:27:30;9.38;;;6.43;;
8592;SDS011;4334;49.982;8.398;2023-04-06T13:30:01;8.63;;;6.40;;
8592;SDS011;4334;49.982;8.398;2023-04-06T13:32:29;9.15;;;5.80;;
8592;SDS011;4334;49.982;8.398;2023-04-06T13:34:59;7.78;;;6.40;;
8592;SDS011;4334;49.982;8.398;2023-04-06T13:37:29;9.10;;;6.78;;
8592;SDS011;4334;49.982;8.398;2023-04-06T13:39:59;8.98;;;6.15;;
8592;SDS011;4334;49.982;8.398;2023-04-06T13:42:28;9.43;;;6.63;;
8592;SDS011;4334;49.982;8.398;2023-04-06T13:44:56;8.00;;;6.40;;
8592;SDS011;4334;49.982;8.398;2023-04-06T13:47:23;10.50;;;6.65;;
8592;SDS011;4334;49.982;8.398;2023-04-06T13:49:51;8.13;;;6.10;;
8592;SDS011;4334;49.982;8.398;2023-04-06T13:52:18;7.20;;;5.75;;
8592;SDS011;4334;49.982;8.398;2023-04-06T13:54:49;7.85;;;6.43;;
8592;SDS011;4334;49.982;8.398;2023-04-06T13:57:16;8.35;;;6.28;;
8592;SDS011;4334;49.982;8.398;2023-04-06T13:59:45;10.45;;;6.18;;
8592;SDS011;4334;49.982;8.398;2023-04-06T14:02:14;8.27;;;6.30;;
8592;SDS011;4334;49.982;8.398;2023-04-06T14:04:42;8.35;;;6.20;;
8592;SDS011;4334;49.982;8.398;2023-04-06T14:07:09;8.23;;;6.10;;
8592;SDS011;4334;49.982;8.398;2023-04-06T14:09:36;11.27;;;6.43;;
8592;SDS011;4334;49.982;8.398;2023-04-06T14:12:04;8.20;;;5.73;;
8592;SDS011;4334;49.982;8.398;2023-04-06T14:14:31;6.93;;;5.50;;
8592;SDS011;4334;49.982;8.398;2023-04-06T14:17:00;9.40;;;6.40;;
8592;SDS011;4334;49.982;8.398;2023-04-06T14:19:27;8.20;;;6.20;;
8592;SDS011;4334;49.982;8.398;2023-04-06T14:21:55;7.63;;;5.87;;
8592;SDS011;4334;49.982;8.398;2023-04-06T14:24:22;7.63;;;6.10;;
8592;SDS011;4334;49.982;8.398;2023-04-06T14:26:50;8.80;;;6.10;;
8592;SDS011;4334;49.982;8.398;2023-04-06T14:29:17;8.63;;;6.17;;
8592;SDS011;4334;49.982;8.398;2023-04-06T14:31:44;8.87;;;5.90;;
8592;SDS011;4334;49.982;8.398;2023-04-06T14:34:14;10.40;;;6.40;;
8592;SDS011;4334;49.982;8.398;2023-04-06T14:36:42;8.03;;;6.50;;
8592;SDS011;4334;49.982;8.398;2023-04-06T14:39:11;9.20;;;6.70;;
8592;SDS011;4334;49.982;8.398;2023-04-06T14:41:41;9.63;;;6.00;;
8592;SDS011;4334;49.982;8.398;2023-04-06T14:44:10;10.87;;;6.00;;
8592;SDS011;4334;49.982;8.398;2023-04-06T14:46:39;9.27;;;6.30;;
8592;SDS011;4334;49.982;8.398;2023-04-06T14:49:06;8.13;;;6.23;;
8592;SDS011;4334;49.982;8.398;2023-04-06T14:51:35;9.63;;;6.03;;
8592;SDS011;4334;49.982;8.398;2023-04-06T14:54:02;8.03;;;5.50;;
8592;SDS011;4334;49.982;8.398;2023-04-06T14:56:31;9.10;;;5.60;;
8592;SDS011;4334;49.982;8.398;2023-04-06T14:58:59;8.27;;;5.63;;
8592;SDS011;4334;49.982;8.398;2023-04-06T15:01:27;8.17;;;5.50;;
8592;SDS011;4334;49.982;8.398;2023-04-06T15:03:54;7.50;;;5.27;;
8592;SDS011;4334;49.982;8.398;2023-04-06T15:06:21;7.00;;;4.90;;
8592;SDS011;4334;49.982;8.398;2023-04-06T15:08:50;7.80;;;5.37;;
8592;SDS011;4334;49.982;8.398;2023-04-06T15:11:23;6.43;;;5.17;;
8592;SDS011;4334;49.982;8.398;2023-04-06T15:13:50;11.87;;;6.00;;
8592;SDS011;4334;49.982;8.398;2023-04-06T15:16:17;7.57;;;5.23;;
8592;SDS011;4334;49.982;8.398;2023-04-06T15:18:45;7.03;;;5.03;;
8592;SDS011;4334;49.982;8.398;2023-04-06T15:21:14;7.17;;;4.90;;
8592;SDS011;4334;49.982;8.398;2023-04-06T15:23:42;7.87;;;5.33;;
8592;SDS011;4334;49.982;8.398;2023-04-06T15:26:11;9.20;;;5.30;;
8592;SDS011;4334;49.982;8.398;2023-04-06T15:28:39;8.50;;;5.00;;
8592;SDS011;4334;49.982;8.398;2023-04-06T15:31:12;12.80;;;5.40;;
8592;SDS011;4334;49.982;8.398;2023-04-06T15:33:45;8.80;;;4.50;;
8592;SDS011;4334;49.982;8.398;2023-04-06T15:36:21;9.53;;;5.47;;
8592;SDS011;4334;49.982;8.398;2023-04-06T15:38:51;7.63;;;5.20;;
8592;SDS011;4334;49.982;8.398;2023-04-06T15:41:20;8.37;;;5.30;;
8592;SDS011;4334;49.982;8.398;2023-04-06T15:43:47;7.73;;;5.40;;
8592;SDS011;4334;49.982;8.398;2023-04-06T15:46:16;8.77;;;5.63;;
8592;SDS011;4334;49.982;8.398;2023-04-06T15:48:43;8.00;;;5.30;;
8592;SDS011;4334;49.982;8.398;2023-04-06T15:51:10;7.50;;;5.20;;
8592;SDS011;4334;49.982;8.398;2023-04-06T15:53:38;7.70;;;5.30;;
8592;SDS011;4334;49.982;8.398;2023-04-06T15:56:06;10.03;;;5.50;;
8592;SDS011;4334;49.982;8.398;2023-04-06T15:58:35;6.17;;;4.13;;
8592;SDS011;4334;49.982;8.398;2023-04-06T16:01:09;7.40;;;4.90;;
8592;SDS011;4334;49.982;8.398;2023-04-06T16:03:38;7.37;;;4.63;;
8592;SDS011;4334;49.982;8.398;2023-04-06T16:06:05;6.10;;;4.33;;
8592;SDS011;4334;49.982;8.398;2023-04-06T16:08:33;6.47;;;4.00;;